sensor_id;sensor_type;location;lat;lon;timestamp;P1;durP1;ratioP1;P2;durP2;ratioP2
52106;SDS011;38105;52.968;5.974;2022-10-31T00:00:39;22.13;;;13.10;;
52106;SDS011;38105;52.968;5.974;2022-10-31T00:03:05;23.27;;;12.98;;
52106;SDS011;38105;52.968;5.974;2022-10-31T00:05:31;22.58;;;12.30;;
52106;SDS011;38105;52.968;5.974;2022-10-31T00:07:56;22.92;;;12.80;;
52106;SDS011;38105;52.968;5.974;2022-10-31T00:10:22;28.33;;;15.05;;
52106;SDS011;38105;52.968;5.974;2022-10-31T00:12:47;22.48;;;13.98;;
52106;SDS011;38105;52.968;5.974;2022-10-31T00:15:13;26.17;;;15.43;;
52106;SDS011;38105;52.968;5.974;2022-10-31T00:17:39;26.20;;;15.55;;
52106;SDS011;38105;52.968;5.974;2022-10-31T00:20:04;25.80;;;15.27;;
52106;SDS011;38105;52.968;5.974;2022-10-31T00:22:30;24.92;;;14.98;;
52106;SDS011;38105;52.968;5.974;2022-10-31T00:24:56;27.85;;;15.68;;
52106;SDS011;38105;52.968;5.974;2022-10-31T00:27:22;27.10;;;16.42;;
52106;SDS011;38105;52.968;5.974;2022-10-31T00:29:47;23.67;;;15.90;;
52106;SDS011;38105;52.968;5.974;2022-10-31T00:32:13;24.70;;;16.30;;
52106;SDS011;38105;52.968;5.974;2022-10-31T00:34:39;30.02;;;18.25;;
52106;SDS011;38105;52.968;5.974;2022-10-31T00:37:04;24.10;;;15.20;;
52106;SDS011;38105;52.968;5.974;2022-10-31T00:39:30;25.10;;;16.25;;
52106;SDS011;38105;52.968;5.974;2022-10-31T00:41:55;22.73;;;14.90;;
52106;SDS011;38105;52.968;5.974;2022-10-31T00:44:21;28.10;;;15.43;;
52106;SDS011;38105;52.968;5.974;2022-10-31T00:46:46;26.95;;;15.18;;
52106;SDS011;38105;52.968;5.974;2022-10-31T00:49:12;23.85;;;15.07;;
52106;SDS011;38105;52.968;5.974;2022-10-31T00:51:38;21.90;;;14.57;;
52106;SDS011;38105;52.968;5.974;2022-10-31T00:54:03;23.33;;;15.13;;
52106;SDS011;38105;52.968;5.974;2022-10-31T00:56:29;24.85;;;16.77;;
52106;SDS011;38105;52.968;5.974;2022-10-31T00:58:55;27.58;;;18.75;;
52106;SDS011;38105;52.968;5.974;2022-10-31T01:01:20;33.50;;;18.52;;
52106;SDS011;38105;52.968;5.974;2022-10-31T01:03:46;27.65;;;17.35;;
52106;SDS011;38105;52.968;5.974;2022-10-31T01:06:12;32.65;;;18.05;;
52106;SDS011;38105;52.968;5.974;2022-10-31T01:08:38;29.50;;;18.05;;
52106;SDS011;38105;52.968;5.974;2022-10-31T01:11:10;28.67;;;19.25;;
52106;SDS011;38105;52.968;5.974;2022-10-31T01:13:44;23.65;;;17.25;;
52106;SDS011;38105;52.968;5.974;2022-10-31T01:16:10;31.02;;;17.48;;
52106;SDS011;38105;52.968;5.974;2022-10-31T01:18:37;27.52;;;17.33;;
52106;SDS011;38105;52.968;5.974;2022-10-31T01:21:11;30.30;;;18.33;;
52106;SDS011;38105;52.968;5.974;2022-10-31T01:23:38;26.13;;;17.10;;
52106;SDS011;38105;52.968;5.974;2022-10-31T01:26:12;25.52;;;16.75;;
52106;SDS011;38105;52.968;5.974;2022-10-31T01:28:47;27.45;;;18.52;;
52106;SDS011;38105;52.968;5.974;2022-10-31T01:31:17;27.73;;;16.63;;
52106;SDS011;38105;52.968;5.974;2022-10-31T01:33:45;26.85;;;17.52;;
52106;SDS011;38105;52.968;5.974;2022-10-31T01:36:33;24.52;;;16.63;;
52106;SDS011;38105;52.968;5.974;2022-10-31T01:39:02;25.80;;;16.67;;
52106;SDS011;38105;52.968;5.974;2022-10-31T01:41:35;29.50;;;17.45;;
52106;SDS011;38105;52.968;5.974;2022-10-31T01:46:39;26.30;;;16.83;;
52106;SDS011;38105;52.968;5.974;2022-10-31T01:49:33;25.52;;;16.63;;
52106;SDS011;38105;52.968;5.974;2022-10-31T01:51:56;25.90;;;16.92;;
52106;SDS011;38105;52.968;5.974;2022-10-31T01:54:25;30.55;;;16.77;;
52106;SDS011;38105;52.968;5.974;2022-10-31T01:56:57;23.58;;;16.02;;
52106;SDS011;38105;52.968;5.974;2022-10-31T01:59:24;23.42;;;16.25;;
52106;SDS011;38105;52.968;5.974;2022-10-31T02:01:52;22.48;;;16.20;;
52106;SDS011;38105;52.968;5.974;2022-10-31T02:04:19;28.10;;;17.00;;
52106;SDS011;38105;52.968;5.974;2022-10-31T02:06:46;25.98;;;16.23;;
52106;SDS011;38105;52.968;5.974;2022-10-31T02:09:27;26.10;;;15.68;;
52106;SDS011;38105;52.968;5.974;2022-10-31T02:11:56;27.70;;;16.13;;
52106;SDS011;38105;52.968;5.974;2022-10-31T02:14:24;27.70;;;16.67;;
52106;SDS011;38105;52.968;5.974;2022-10-31T02:16:53;23.92;;;15.63;;
52106;SDS011;38105;52.968;5.974;2022-10-31T02:22:26;25.45;;;15.57;;
52106;SDS011;38105;52.968;5.974;2022-10-31T02:34:03;24.38;;;14.77;;
52106;SDS011;38105;52.968;5.974;2022-10-31T02:36:59;19.40;;;13.52;;
52106;SDS011;38105;52.968;5.974;2022-10-31T02:39:45;25.48;;;15.05;;
52106;SDS011;38105;52.968;5.974;2022-10-31T02:42:29;26.35;;;16.42;;
52106;SDS011;38105;52.968;5.974;2022-10-31T02:45:05;24.17;;;16.40;;
52106;SDS011;38105;52.968;5.974;2022-10-31T02:47:42;26.77;;;16.80;;
52106;SDS011;38105;52.968;5.974;2022-10-31T02:52:51;26.55;;;16.63;;
52106;SDS011;38105;52.968;5.974;2022-10-31T02:57:54;27.73;;;18.35;;
52106;SDS011;38105;52.968;5.974;2022-10-31T03:00:23;24.70;;;17.48;;
52106;SDS011;38105;52.968;5.974;2022-10-31T03:10:47;21.20;;;16.85;;
52106;SDS011;38105;52.968;5.974;2022-10-31T03:13:27;25.00;;;17.23;;
52106;SDS011;38105;52.968;5.974;2022-10-31T03:18:33;27.35;;;17.95;;
52106;SDS011;38105;52.968;5.974;2022-10-31T03:21:09;25.92;;;17.85;;
52106;SDS011;38105;52.968;5.974;2022-10-31T03:23:41;24.92;;;17.77;;
52106;SDS011;38105;52.968;5.974;2022-10-31T03:26:09;24.67;;;17.08;;
52106;SDS011;38105;52.968;5.974;2022-10-31T03:28:39;22.60;;;17.13;;
52106;SDS011;38105;52.968;5.974;2022-10-31T03:31:11;26.02;;;17.65;;
52106;SDS011;38105;52.968;5.974;2022-10-31T03:33:41;27.98;;;17.63;;
52106;SDS011;38105;52.968;5.974;2022-10-31T03:36:08;28.40;;;20.05;;
52106;SDS011;38105;52.968;5.974;2022-10-31T03:38:36;28.85;;;19.52;;
52106;SDS011;38105;52.968;5.974;2022-10-31T03:41:04;31.48;;;20.38;;
52106;SDS011;38105;52.968;5.974;2022-10-31T03:43:36;30.58;;;21.00;;
52106;SDS011;38105;52.968;5.974;2022-10-31T03:46:07;32.20;;;21.60;;
52106;SDS011;38105;52.968;5.974;2022-10-31T03:48:33;29.85;;;20.52;;
52106;SDS011;38105;52.968;5.974;2022-10-31T03:51:15;28.42;;;19.85;;
52106;SDS011;38105;52.968;5.974;2022-10-31T03:53:58;27.50;;;20.30;;
52106;SDS011;38105;52.968;5.974;2022-10-31T03:56:37;33.90;;;22.20;;
52106;SDS011;38105;52.968;5.974;2022-10-31T03:59:39;31.90;;;21.75;;
52106;SDS011;38105;52.968;5.974;2022-10-31T04:02:10;30.88;;;21.15;;
52106;SDS011;38105;52.968;5.974;2022-10-31T04:04:40;31.17;;;21.85;;
52106;SDS011;38105;52.968;5.974;2022-10-31T04:07:09;31.95;;;20.88;;
52106;SDS011;38105;52.968;5.974;2022-10-31T04:09:36;26.58;;;20.55;;
52106;SDS011;38105;52.968;5.974;2022-10-31T04:12:06;30.40;;;21.65;;
52106;SDS011;38105;52.968;5.974;2022-10-31T04:14:36;30.52;;;20.67;;
52106;SDS011;38105;52.968;5.974;2022-10-31T04:17:05;30.98;;;21.45;;
52106;SDS011;38105;52.968;5.974;2022-10-31T04:19:36;28.50;;;21.05;;
52106;SDS011;38105;52.968;5.974;2022-10-31T04:22:02;28.67;;;20.30;;
52106;SDS011;38105;52.968;5.974;2022-10-31T04:24:27;26.50;;;19.38;;
52106;SDS011;38105;52.968;5.974;2022-10-31T04:26:53;30.67;;;20.90;;
52106;SDS011;38105;52.968;5.974;2022-10-31T04:29:19;28.08;;;20.45;;
52106;SDS011;38105;52.968;5.974;2022-10-31T04:31:44;31.40;;;20.83;;
52106;SDS011;38105;52.968;5.974;2022-10-31T04:34:10;27.90;;;21.30;;
52106;SDS011;38105;52.968;5.974;2022-10-31T04:36:35;28.55;;;21.88;;
52106;SDS011;38105;52.968;5.974;2022-10-31T04:39:01;29.92;;;20.45;;
52106;SDS011;38105;52.968;5.974;2022-10-31T04:41:27;29.50;;;21.15;;
52106;SDS011;38105;52.968;5.974;2022-10-31T04:43:52;28.65;;;20.80;;
52106;SDS011;38105;52.968;5.974;2022-10-31T04:46:18;25.50;;;20.88;;
52106;SDS011;38105;52.968;5.974;2022-10-31T04:48:44;29.77;;;21.08;;
52106;SDS011;38105;52.968;5.974;2022-10-31T04:51:09;30.55;;;22.60;;
52106;SDS011;38105;52.968;5.974;2022-10-31T04:53:35;29.88;;;22.42;;
52106;SDS011;38105;52.968;5.974;2022-10-31T04:56:00;34.50;;;22.80;;
52106;SDS011;38105;52.968;5.974;2022-10-31T04:58:27;32.78;;;23.35;;
52106;SDS011;38105;52.968;5.974;2022-10-31T05:00:53;31.50;;;21.13;;
52106;SDS011;38105;52.968;5.974;2022-10-31T05:03:20;29.33;;;21.90;;
52106;SDS011;38105;52.968;5.974;2022-10-31T05:05:46;31.75;;;22.45;;
52106;SDS011;38105;52.968;5.974;2022-10-31T05:08:11;31.25;;;20.15;;
52106;SDS011;38105;52.968;5.974;2022-10-31T05:10:37;33.17;;;21.60;;
52106;SDS011;38105;52.968;5.974;2022-10-31T05:13:03;32.92;;;21.67;;
52106;SDS011;38105;52.968;5.974;2022-10-31T05:15:29;28.25;;;21.65;;
52106;SDS011;38105;52.968;5.974;2022-10-31T05:17:55;31.20;;;21.77;;
52106;SDS011;38105;52.968;5.974;2022-10-31T05:20:22;27.02;;;21.10;;
52106;SDS011;38105;52.968;5.974;2022-10-31T05:22:53;34.97;;;22.00;;
52106;SDS011;38105;52.968;5.974;2022-10-31T05:25:20;29.30;;;22.08;;
52106;SDS011;38105;52.968;5.974;2022-10-31T05:27:48;38.30;;;23.75;;
52106;SDS011;38105;52.968;5.974;2022-10-31T05:30:19;39.03;;;23.70;;
52106;SDS011;38105;52.968;5.974;2022-10-31T05:32:50;35.30;;;23.35;;
52106;SDS011;38105;52.968;5.974;2022-10-31T05:35:20;34.00;;;24.02;;
52106;SDS011;38105;52.968;5.974;2022-10-31T05:37:50;32.88;;;24.30;;
52106;SDS011;38105;52.968;5.974;2022-10-31T05:40:16;33.67;;;24.08;;
52106;SDS011;38105;52.968;5.974;2022-10-31T05:42:43;35.72;;;25.45;;
52106;SDS011;38105;52.968;5.974;2022-10-31T05:45:10;36.40;;;24.38;;
52106;SDS011;38105;52.968;5.974;2022-10-31T05:47:37;36.20;;;25.35;;
52106;SDS011;38105;52.968;5.974;2022-10-31T05:50:04;36.20;;;25.23;;
52106;SDS011;38105;52.968;5.974;2022-10-31T05:52:30;38.70;;;25.77;;
52106;SDS011;38105;52.968;5.974;2022-10-31T05:54:56;47.50;;;27.70;;
52106;SDS011;38105;52.968;5.974;2022-10-31T05:57:22;36.80;;;25.95;;
52106;SDS011;38105;52.968;5.974;2022-10-31T05:59:48;37.25;;;26.42;;
52106;SDS011;38105;52.968;5.974;2022-10-31T06:02:13;43.95;;;27.30;;
52106;SDS011;38105;52.968;5.974;2022-10-31T06:04:39;34.05;;;26.48;;
52106;SDS011;38105;52.968;5.974;2022-10-31T06:07:04;35.72;;;26.33;;
52106;SDS011;38105;52.968;5.974;2022-10-31T06:09:30;45.78;;;27.67;;
52106;SDS011;38105;52.968;5.974;2022-10-31T06:11:55;45.35;;;29.23;;
52106;SDS011;38105;52.968;5.974;2022-10-31T06:14:21;42.88;;;30.27;;
52106;SDS011;38105;52.968;5.974;2022-10-31T06:16:47;45.55;;;29.70;;
52106;SDS011;38105;52.968;5.974;2022-10-31T06:19:12;45.03;;;30.02;;
52106;SDS011;38105;52.968;5.974;2022-10-31T06:21:38;50.97;;;32.25;;
52106;SDS011;38105;52.968;5.974;2022-10-31T06:24:04;45.00;;;30.98;;
52106;SDS011;38105;52.968;5.974;2022-10-31T06:26:29;44.05;;;30.38;;
52106;SDS011;38105;52.968;5.974;2022-10-31T06:28:55;44.78;;;30.25;;
52106;SDS011;38105;52.968;5.974;2022-10-31T06:31:21;48.88;;;31.38;;
52106;SDS011;38105;52.968;5.974;2022-10-31T06:33:46;50.97;;;32.03;;
52106;SDS011;38105;52.968;5.974;2022-10-31T06:36:12;48.30;;;31.85;;
52106;SDS011;38105;52.968;5.974;2022-10-31T06:38:37;45.17;;;31.60;;
52106;SDS011;38105;52.968;5.974;2022-10-31T06:41:03;42.20;;;31.23;;
52106;SDS011;38105;52.968;5.974;2022-10-31T06:43:30;49.65;;;32.33;;
52106;SDS011;38105;52.968;5.974;2022-10-31T06:45:56;48.00;;;31.85;;
52106;SDS011;38105;52.968;5.974;2022-10-31T06:48:22;48.75;;;32.53;;
52106;SDS011;38105;52.968;5.974;2022-10-31T06:50:48;44.22;;;31.00;;
52106;SDS011;38105;52.968;5.974;2022-10-31T06:53:14;43.75;;;30.40;;
52106;SDS011;38105;52.968;5.974;2022-10-31T06:55:40;49.67;;;32.70;;
52106;SDS011;38105;52.968;5.974;2022-10-31T06:58:06;45.65;;;31.52;;
52106;SDS011;38105;52.968;5.974;2022-10-31T07:00:33;45.22;;;30.63;;
52106;SDS011;38105;52.968;5.974;2022-10-31T07:03:20;48.22;;;30.95;;
52106;SDS011;38105;52.968;5.974;2022-10-31T07:05:45;41.67;;;28.52;;
52106;SDS011;38105;52.968;5.974;2022-10-31T07:08:11;44.70;;;31.35;;
52106;SDS011;38105;52.968;5.974;2022-10-31T07:10:38;44.67;;;29.02;;
52106;SDS011;38105;52.968;5.974;2022-10-31T07:13:06;37.78;;;27.52;;
52106;SDS011;38105;52.968;5.974;2022-10-31T07:15:36;42.50;;;29.95;;
52106;SDS011;38105;52.968;5.974;2022-10-31T07:18:03;41.78;;;29.02;;
52106;SDS011;38105;52.968;5.974;2022-10-31T07:20:30;37.22;;;27.33;;
52106;SDS011;38105;52.968;5.974;2022-10-31T07:22:56;40.67;;;28.52;;
52106;SDS011;38105;52.968;5.974;2022-10-31T07:25:22;33.03;;;25.48;;
52106;SDS011;38105;52.968;5.974;2022-10-31T07:27:49;31.17;;;24.35;;
52106;SDS011;38105;52.968;5.974;2022-10-31T07:30:14;32.20;;;23.30;;
52106;SDS011;38105;52.968;5.974;2022-10-31T07:32:49;27.13;;;21.13;;
52106;SDS011;38105;52.968;5.974;2022-10-31T07:37:42;21.20;;;16.35;;
52106;SDS011;38105;52.968;5.974;2022-10-31T07:40:08;20.98;;;16.38;;
52106;SDS011;38105;52.968;5.974;2022-10-31T07:42:35;20.25;;;15.23;;
52106;SDS011;38105;52.968;5.974;2022-10-31T07:45:02;17.10;;;14.38;;
52106;SDS011;38105;52.968;5.974;2022-10-31T07:48:04;16.50;;;14.32;;
52106;SDS011;38105;52.968;5.974;2022-10-31T07:50:24;18.38;;;13.45;;
52106;SDS011;38105;52.968;5.974;2022-10-31T07:53:01;16.60;;;12.95;;
52106;SDS011;38105;52.968;5.974;2022-10-31T07:55:30;16.42;;;11.05;;
52106;SDS011;38105;52.968;5.974;2022-10-31T07:58:00;17.45;;;11.70;;
52106;SDS011;38105;52.968;5.974;2022-10-31T08:00:28;16.83;;;12.30;;
52106;SDS011;38105;52.968;5.974;2022-10-31T08:03:01;14.02;;;11.25;;
52106;SDS011;38105;52.968;5.974;2022-10-31T08:05:28;15.90;;;12.38;;
52106;SDS011;38105;52.968;5.974;2022-10-31T08:07:55;14.30;;;12.65;;
52106;SDS011;38105;52.968;5.974;2022-10-31T08:10:20;13.32;;;11.93;;
52106;SDS011;38105;52.968;5.974;2022-10-31T08:12:47;13.40;;;11.32;;
52106;SDS011;38105;52.968;5.974;2022-10-31T08:15:19;12.10;;;10.77;;
52106;SDS011;38105;52.968;5.974;2022-10-31T08:17:45;13.15;;;10.50;;
52106;SDS011;38105;52.968;5.974;2022-10-31T08:20:10;15.30;;;10.75;;
52106;SDS011;38105;52.968;5.974;2022-10-31T08:22:36;12.55;;;11.25;;
52106;SDS011;38105;52.968;5.974;2022-10-31T08:25:02;12.45;;;10.77;;
52106;SDS011;38105;52.968;5.974;2022-10-31T08:27:28;15.55;;;11.13;;
52106;SDS011;38105;52.968;5.974;2022-10-31T08:29:53;12.05;;;10.52;;
52106;SDS011;38105;52.968;5.974;2022-10-31T08:32:19;13.82;;;11.10;;
52106;SDS011;38105;52.968;5.974;2022-10-31T08:34:45;14.30;;;11.25;;
52106;SDS011;38105;52.968;5.974;2022-10-31T08:37:10;13.25;;;10.88;;
52106;SDS011;38105;52.968;5.974;2022-10-31T08:39:36;14.45;;;10.80;;
52106;SDS011;38105;52.968;5.974;2022-10-31T08:42:01;12.85;;;10.18;;
52106;SDS011;38105;52.968;5.974;2022-10-31T08:44:27;11.88;;;9.85;;
52106;SDS011;38105;52.968;5.974;2022-10-31T08:46:53;12.82;;;10.02;;
52106;SDS011;38105;52.968;5.974;2022-10-31T08:49:18;13.38;;;11.10;;
52106;SDS011;38105;52.968;5.974;2022-10-31T08:51:47;14.30;;;10.88;;
52106;SDS011;38105;52.968;5.974;2022-10-31T08:54:13;11.60;;;10.38;;
52106;SDS011;38105;52.968;5.974;2022-10-31T08:56:38;11.60;;;10.10;;
52106;SDS011;38105;52.968;5.974;2022-10-31T08:59:04;13.00;;;10.18;;
52106;SDS011;38105;52.968;5.974;2022-10-31T09:01:29;13.70;;;11.35;;
52106;SDS011;38105;52.968;5.974;2022-10-31T09:03:55;16.23;;;11.20;;
52106;SDS011;38105;52.968;5.974;2022-10-31T09:06:21;11.80;;;10.60;;
52106;SDS011;38105;52.968;5.974;2022-10-31T09:08:46;13.98;;;11.20;;
52106;SDS011;38105;52.968;5.974;2022-10-31T09:11:12;13.98;;;10.57;;
52106;SDS011;38105;52.968;5.974;2022-10-31T09:13:37;16.02;;;11.18;;
52106;SDS011;38105;52.968;5.974;2022-10-31T09:16:03;12.45;;;10.50;;
52106;SDS011;38105;52.968;5.974;2022-10-31T09:18:29;13.82;;;10.93;;
52106;SDS011;38105;52.968;5.974;2022-10-31T09:20:57;15.45;;;10.77;;
52106;SDS011;38105;52.968;5.974;2022-10-31T09:23:24;14.25;;;11.00;;
52106;SDS011;38105;52.968;5.974;2022-10-31T09:25:51;14.15;;;12.10;;
52106;SDS011;38105;52.968;5.974;2022-10-31T09:28:18;16.35;;;11.93;;
52106;SDS011;38105;52.968;5.974;2022-10-31T09:30:49;16.42;;;11.65;;
52106;SDS011;38105;52.968;5.974;2022-10-31T09:33:16;14.27;;;11.38;;
52106;SDS011;38105;52.968;5.974;2022-10-31T09:35:42;13.13;;;10.95;;
52106;SDS011;38105;52.968;5.974;2022-10-31T09:38:09;18.33;;;11.93;;
52106;SDS011;38105;52.968;5.974;2022-10-31T09:40:40;16.33;;;12.13;;
52106;SDS011;38105;52.968;5.974;2022-10-31T09:45:39;17.23;;;11.75;;
52106;SDS011;38105;52.968;5.974;2022-10-31T09:48:13;14.80;;;11.77;;
52106;SDS011;38105;52.968;5.974;2022-10-31T09:50:50;16.15;;;12.10;;
52106;SDS011;38105;52.968;5.974;2022-10-31T09:56:42;18.83;;;12.48;;
52106;SDS011;38105;52.968;5.974;2022-10-31T09:59:12;15.32;;;12.40;;
52106;SDS011;38105;52.968;5.974;2022-10-31T10:01:50;18.10;;;13.13;;
52106;SDS011;38105;52.968;5.974;2022-10-31T10:06:58;17.58;;;14.18;;
52106;SDS011;38105;52.968;5.974;2022-10-31T10:09:26;17.10;;;14.73;;
52106;SDS011;38105;52.968;5.974;2022-10-31T10:11:58;20.27;;;15.70;;
52106;SDS011;38105;52.968;5.974;2022-10-31T10:14:38;22.77;;;16.35;;
52106;SDS011;38105;52.968;5.974;2022-10-31T10:19:55;22.75;;;18.50;;
52106;SDS011;38105;52.968;5.974;2022-10-31T10:25:38;23.75;;;18.08;;
52106;SDS011;38105;52.968;5.974;2022-10-31T10:28:17;23.63;;;18.10;;
52106;SDS011;38105;52.968;5.974;2022-10-31T10:30:48;27.40;;;19.25;;
52106;SDS011;38105;52.968;5.974;2022-10-31T10:33:27;22.60;;;18.42;;
52106;SDS011;38105;52.968;5.974;2022-10-31T10:36:21;22.23;;;18.88;;
52106;SDS011;38105;52.968;5.974;2022-10-31T10:39:11;23.50;;;18.42;;
52106;SDS011;38105;52.968;5.974;2022-10-31T10:41:49;24.27;;;18.60;;
52106;SDS011;38105;52.968;5.974;2022-10-31T10:44:37;26.98;;;20.38;;
52106;SDS011;38105;52.968;5.974;2022-10-31T10:47:25;25.58;;;18.92;;
52106;SDS011;38105;52.968;5.974;2022-10-31T10:50:02;24.77;;;19.50;;
52106;SDS011;38105;52.968;5.974;2022-10-31T10:52:40;25.67;;;19.77;;
52106;SDS011;38105;52.968;5.974;2022-10-31T11:02:48;28.65;;;19.77;;
52106;SDS011;38105;52.968;5.974;2022-10-31T11:05:20;26.92;;;21.17;;
52106;SDS011;38105;52.968;5.974;2022-10-31T11:08:06;29.42;;;21.35;;
52106;SDS011;38105;52.968;5.974;2022-10-31T11:10:32;29.00;;;21.70;;
52106;SDS011;38105;52.968;5.974;2022-10-31T11:13:05;33.47;;;23.20;;
52106;SDS011;38105;52.968;5.974;2022-10-31T11:16:00;29.48;;;22.98;;
52106;SDS011;38105;52.968;5.974;2022-10-31T11:18:32;29.95;;;22.15;;
52106;SDS011;38105;52.968;5.974;2022-10-31T11:21:17;30.33;;;23.65;;
52106;SDS011;38105;52.968;5.974;2022-10-31T11:26:35;31.27;;;22.33;;
52106;SDS011;38105;52.968;5.974;2022-10-31T11:29:05;29.75;;;21.45;;
52106;SDS011;38105;52.968;5.974;2022-10-31T11:31:41;27.77;;;20.50;;
52106;SDS011;38105;52.968;5.974;2022-10-31T11:34:13;29.08;;;20.42;;
52106;SDS011;38105;52.968;5.974;2022-10-31T11:36:51;30.67;;;20.27;;
52106;SDS011;38105;52.968;5.974;2022-10-31T11:39:18;29.50;;;19.83;;
52106;SDS011;38105;52.968;5.974;2022-10-31T11:41:46;28.30;;;18.40;;
52106;SDS011;38105;52.968;5.974;2022-10-31T11:44:18;24.63;;;16.63;;
52106;SDS011;38105;52.968;5.974;2022-10-31T11:46:54;27.65;;;15.95;;
52106;SDS011;38105;52.968;5.974;2022-10-31T11:49:31;21.88;;;14.70;;
52106;SDS011;38105;52.968;5.974;2022-10-31T11:52:00;20.00;;;13.63;;
52106;SDS011;38105;52.968;5.974;2022-10-31T11:54:32;21.15;;;12.68;;
52106;SDS011;38105;52.968;5.974;2022-10-31T11:57:21;18.90;;;11.75;;
52106;SDS011;38105;52.968;5.974;2022-10-31T12:00:01;16.73;;;10.77;;
52106;SDS011;38105;52.968;5.974;2022-10-31T12:02:29;19.50;;;10.98;;
52106;SDS011;38105;52.968;5.974;2022-10-31T12:05:08;19.88;;;11.27;;
52106;SDS011;38105;52.968;5.974;2022-10-31T12:07:45;15.73;;;8.88;;
52106;SDS011;38105;52.968;5.974;2022-10-31T12:10:11;14.15;;;9.48;;
52106;SDS011;38105;52.968;5.974;2022-10-31T12:21:09;18.00;;;10.05;;
52106;SDS011;38105;52.968;5.974;2022-10-31T12:29:11;18.15;;;10.32;;
52106;SDS011;38105;52.968;5.974;2022-10-31T12:31:46;16.20;;;10.55;;
52106;SDS011;38105;52.968;5.974;2022-10-31T12:34:43;17.60;;;9.98;;
52106;SDS011;38105;52.968;5.974;2022-10-31T12:42:58;14.45;;;9.55;;
52106;SDS011;38105;52.968;5.974;2022-10-31T12:45:57;14.88;;;9.85;;
52106;SDS011;38105;52.968;5.974;2022-10-31T12:54:41;16.83;;;10.82;;
52106;SDS011;38105;52.968;5.974;2022-10-31T12:57:26;16.13;;;10.60;;
52106;SDS011;38105;52.968;5.974;2022-10-31T13:02:57;14.77;;;10.13;;
52106;SDS011;38105;52.968;5.974;2022-10-31T13:05:48;16.13;;;10.70;;
52106;SDS011;38105;52.968;5.974;2022-10-31T13:08:23;14.13;;;9.97;;
52106;SDS011;38105;52.968;5.974;2022-10-31T13:11:07;16.27;;;10.05;;
52106;SDS011;38105;52.968;5.974;2022-10-31T13:14:05;20.05;;;10.88;;
52106;SDS011;38105;52.968;5.974;2022-10-31T13:16:46;20.27;;;11.70;;
52106;SDS011;38105;52.968;5.974;2022-10-31T13:19:17;18.35;;;10.45;;
52106;SDS011;38105;52.968;5.974;2022-10-31T13:22:04;17.05;;;11.15;;
52106;SDS011;38105;52.968;5.974;2022-10-31T13:24:39;16.98;;;10.27;;
52106;SDS011;38105;52.968;5.974;2022-10-31T13:27:12;17.45;;;10.55;;
52106;SDS011;38105;52.968;5.974;2022-10-31T13:32:21;16.80;;;9.88;;
52106;SDS011;38105;52.968;5.974;2022-10-31T13:34:47;17.60;;;10.52;;
52106;SDS011;38105;52.968;5.974;2022-10-31T13:45:46;14.10;;;8.52;;
52106;SDS011;38105;52.968;5.974;2022-10-31T13:50:39;14.13;;;7.75;;
52106;SDS011;38105;52.968;5.974;2022-10-31T13:53:12;14.45;;;7.20;;
52106;SDS011;38105;52.968;5.974;2022-10-31T13:55:43;13.05;;;7.10;;
52106;SDS011;38105;52.968;5.974;2022-10-31T13:58:53;13.73;;;7.15;;
52106;SDS011;38105;52.968;5.974;2022-10-31T14:01:13;12.40;;;7.00;;
52106;SDS011;38105;52.968;5.974;2022-10-31T14:03:41;16.13;;;6.65;;
52106;SDS011;38105;52.968;5.974;2022-10-31T14:06:09;11.25;;;6.70;;
52106;SDS011;38105;52.968;5.974;2022-10-31T14:08:37;14.50;;;6.72;;
52106;SDS011;38105;52.968;5.974;2022-10-31T14:11:07;12.68;;;6.43;;
52106;SDS011;38105;52.968;5.974;2022-10-31T14:13:42;15.25;;;6.78;;
52106;SDS011;38105;52.968;5.974;2022-10-31T14:18:49;10.98;;;6.80;;
52106;SDS011;38105;52.968;5.974;2022-10-31T14:23:51;13.00;;;6.22;;
52106;SDS011;38105;52.968;5.974;2022-10-31T14:31:41;10.95;;;6.43;;
52106;SDS011;38105;52.968;5.974;2022-10-31T14:37:25;14.13;;;6.53;;
52106;SDS011;38105;52.968;5.974;2022-10-31T14:50:53;12.18;;;5.82;;
52106;SDS011;38105;52.968;5.974;2022-10-31T14:53:29;13.95;;;5.65;;
52106;SDS011;38105;52.968;5.974;2022-10-31T14:56:01;11.15;;;5.97;;
52106;SDS011;38105;52.968;5.974;2022-10-31T14:58:29;12.90;;;5.57;;
52106;SDS011;38105;52.968;5.974;2022-10-31T15:01:02;10.63;;;5.70;;
52106;SDS011;38105;52.968;5.974;2022-10-31T15:06:16;11.05;;;6.07;;
52106;SDS011;38105;52.968;5.974;2022-10-31T15:08:46;10.48;;;5.35;;
52106;SDS011;38105;52.968;5.974;2022-10-31T15:11:15;10.70;;;5.70;;
52106;SDS011;38105;52.968;5.974;2022-10-31T15:13:49;8.85;;;5.28;;
52106;SDS011;38105;52.968;5.974;2022-10-31T15:16:24;11.98;;;5.78;;
52106;SDS011;38105;52.968;5.974;2022-10-31T15:18:57;14.55;;;6.40;;
52106;SDS011;38105;52.968;5.974;2022-10-31T15:21:26;10.57;;;6.10;;
52106;SDS011;38105;52.968;5.974;2022-10-31T15:23:53;12.23;;;6.30;;
52106;SDS011;38105;52.968;5.974;2022-10-31T15:26:22;12.93;;;7.15;;
52106;SDS011;38105;52.968;5.974;2022-10-31T15:29:02;12.80;;;6.72;;
52106;SDS011;38105;52.968;5.974;2022-10-31T15:31:36;11.27;;;6.78;;
52106;SDS011;38105;52.968;5.974;2022-10-31T15:34:11;12.85;;;6.53;;
52106;SDS011;38105;52.968;5.974;2022-10-31T15:36:42;15.88;;;7.10;;
52106;SDS011;38105;52.968;5.974;2022-10-31T15:39:10;11.00;;;6.65;;
52106;SDS011;38105;52.968;5.974;2022-10-31T15:44:18;12.32;;;7.00;;
52106;SDS011;38105;52.968;5.974;2022-10-31T15:46:54;11.57;;;6.57;;
52106;SDS011;38105;52.968;5.974;2022-10-31T15:49:38;13.55;;;6.90;;
52106;SDS011;38105;52.968;5.974;2022-10-31T15:52:10;14.60;;;6.57;;
52106;SDS011;38105;52.968;5.974;2022-10-31T15:54:44;12.90;;;6.57;;
52106;SDS011;38105;52.968;5.974;2022-10-31T15:57:13;13.20;;;6.05;;
52106;SDS011;38105;52.968;5.974;2022-10-31T15:59:41;14.95;;;6.63;;
52106;SDS011;38105;52.968;5.974;2022-10-31T16:02:12;11.15;;;6.50;;
52106;SDS011;38105;52.968;5.974;2022-10-31T16:04:49;22.80;;;7.50;;
52106;SDS011;38105;52.968;5.974;2022-10-31T16:07:15;13.73;;;6.15;;
52106;SDS011;38105;52.968;5.974;2022-10-31T16:12:48;16.27;;;6.85;;
52106;SDS011;38105;52.968;5.974;2022-10-31T16:15:15;13.63;;;7.40;;
52106;SDS011;38105;52.968;5.974;2022-10-31T16:17:43;15.02;;;7.68;;
52106;SDS011;38105;52.968;5.974;2022-10-31T16:20:25;14.88;;;7.28;;
52106;SDS011;38105;52.968;5.974;2022-10-31T16:22:54;13.30;;;7.80;;
52106;SDS011;38105;52.968;5.974;2022-10-31T16:25:35;18.42;;;9.02;;
52106;SDS011;38105;52.968;5.974;2022-10-31T16:28:04;13.95;;;7.93;;
52106;SDS011;38105;52.968;5.974;2022-10-31T16:30:42;14.07;;;8.32;;
52106;SDS011;38105;52.968;5.974;2022-10-31T16:35:58;16.38;;;7.80;;
52106;SDS011;38105;52.968;5.974;2022-10-31T16:38:24;12.05;;;8.15;;
52106;SDS011;38105;52.968;5.974;2022-10-31T16:40:50;16.55;;;7.75;;
52106;SDS011;38105;52.968;5.974;2022-10-31T16:43:17;13.95;;;8.00;;
52106;SDS011;38105;52.968;5.974;2022-10-31T16:45:49;12.30;;;7.60;;
52106;SDS011;38105;52.968;5.974;2022-10-31T16:48:17;14.00;;;7.47;;
52106;SDS011;38105;52.968;5.974;2022-10-31T16:50:46;13.65;;;7.63;;
52106;SDS011;38105;52.968;5.974;2022-10-31T16:53:12;13.25;;;7.63;;
52106;SDS011;38105;52.968;5.974;2022-10-31T16:55:43;13.93;;;7.43;;
52106;SDS011;38105;52.968;5.974;2022-10-31T16:58:19;15.13;;;8.07;;